createdAt,value
2019-01-23T00:01:02.011Z,2.00
2019-01-23T00:03:31.390Z,2.30
2019-01-23T00:06:00.894Z,2.43
2019-01-23T00:08:30.233Z,2.60
2019-01-23T00:10:59.574Z,3.33
2019-01-23T00:13:28.940Z,3.10
2019-01-23T00:15:58.353Z,2.90
2019-01-23T00:18:27.723Z,2.90
2019-01-23T00:20:57.062Z,4.50
2019-01-23T00:23:26.450Z,2.90
2019-01-23T00:25:55.807Z,3.70
2019-01-23T00:28:25.163Z,1.92
2019-01-23T00:30:54.512Z,2.75
2019-01-23T00:33:23.875Z,2.00
2019-01-23T00:35:53.275Z,1.90
2019-01-23T00:38:22.705Z,2.27
2019-01-23T00:40:52.069Z,1.50
2019-01-23T00:43:21.440Z,1.95
2019-01-23T00:45:50.792Z,1.67
2019-01-23T00:48:20.174Z,2.17
2019-01-23T00:50:49.508Z,1.40
2019-01-23T00:53:18.963Z,1.40
2019-01-23T00:55:48.330Z,2.43
2019-01-23T00:58:17.688Z,2.50
2019-01-23T01:00:47.045Z,2.60
2019-01-23T01:03:16.424Z,2.37
2019-01-23T01:05:45.926Z,1.57
2019-01-23T01:08:15.350Z,1.80
2019-01-23T01:10:44.703Z,1.20
2019-01-23T01:13:14.158Z,1.80
2019-01-23T01:15:43.617Z,1.32
2019-01-23T01:18:13.020Z,1.90
2019-01-23T01:20:42.367Z,1.82
2019-01-23T01:23:11.754Z,1.72
2019-01-23T01:25:41.089Z,1.60
2019-01-23T01:28:10.460Z,2.00
2019-01-23T01:30:40.728Z,1.35
2019-01-23T01:33:10.123Z,1.87
2019-01-23T01:35:39.468Z,2.12
2019-01-23T01:38:08.848Z,1.95
2019-01-23T01:40:38.231Z,1.62
2019-01-23T01:43:07.607Z,1.32
2019-01-23T01:45:36.974Z,1.47
2019-01-23T01:48:06.351Z,1.75
2019-01-23T01:50:35.704Z,1.77
2019-01-23T01:53:05.041Z,1.70
2019-01-23T01:55:34.431Z,1.40
2019-01-23T01:58:04.009Z,1.67
2019-01-23T02:00:33.371Z,1.55
2019-01-23T02:03:04.545Z,2.22
2019-01-23T02:05:33.979Z,1.87
2019-01-23T02:08:03.344Z,1.87
2019-01-23T02:10:32.731Z,1.42
2019-01-23T02:13:17.413Z,1.27
2019-01-23T02:15:46.776Z,1.57
2019-01-23T02:18:16.121Z,1.40
2019-01-23T02:20:45.480Z,1.80
2019-01-23T02:23:14.804Z,1.98
2019-01-23T02:25:44.167Z,1.47
2019-01-23T02:28:14.554Z,1.90
2019-01-23T02:30:45.132Z,1.30
2019-01-23T02:33:14.540Z,1.80
2019-01-23T02:35:43.936Z,1.95
2019-01-23T02:38:13.283Z,1.80
2019-01-23T02:40:42.687Z,1.60
2019-01-23T02:43:12.088Z,1.60
2019-01-23T02:45:41.462Z,1.77
2019-01-23T02:48:10.853Z,2.10
2019-01-23T02:50:40.224Z,1.70
2019-01-23T02:53:09.579Z,1.72
2019-01-23T02:55:38.975Z,1.85
2019-01-23T02:58:08.342Z,1.75
2019-01-23T03:00:37.711Z,1.50
2019-01-23T03:03:07.428Z,1.60
2019-01-23T03:05:36.791Z,1.87
2019-01-23T03:08:07.264Z,1.90
2019-01-23T03:10:57.027Z,1.82
2019-01-23T03:13:26.415Z,2.25
2019-01-23T03:15:55.787Z,2.22
2019-01-23T03:18:25.121Z,1.52
2019-01-23T03:20:55.583Z,1.93
2019-01-23T03:23:24.920Z,1.60
2019-01-23T03:25:54.318Z,2.22
2019-01-23T03:28:23.760Z,2.20
2019-01-23T03:30:53.151Z,1.70
2019-01-23T03:33:22.537Z,2.00
2019-01-23T03:35:51.903Z,1.87
2019-01-23T03:38:21.285Z,2.05
2019-01-23T03:40:50.676Z,1.47
2019-01-23T03:43:23.586Z,1.67
2019-01-23T03:45:52.934Z,2.95
2019-01-23T03:48:24.620Z,2.42
2019-01-23T03:50:53.977Z,1.67
2019-01-23T03:53:23.322Z,2.08
2019-01-23T03:55:52.708Z,1.70
2019-01-23T03:58:22.053Z,1.90
2019-01-23T04:00:51.405Z,2.25
2019-01-23T04:03:20.786Z,1.50
2019-01-23T04:05:50.140Z,2.00
2019-01-23T04:08:19.538Z,1.60
2019-01-23T04:10:48.937Z,1.80
2019-01-23T04:13:18.312Z,2.10
2019-01-23T04:15:47.666Z,2.12
2019-01-23T04:18:17.027Z,1.50
2019-01-23T04:20:46.377Z,1.73
2019-01-23T04:23:15.736Z,1.93
2019-01-23T04:25:48.387Z,2.10
2019-01-23T04:28:17.764Z,1.50
2019-01-23T04:30:47.114Z,1.80
2019-01-23T04:33:16.490Z,2.80
2019-01-23T04:35:45.840Z,2.12
2019-01-23T04:38:15.219Z,1.65
2019-01-23T04:40:44.587Z,2.00
2019-01-23T04:43:13.945Z,2.45
2019-01-23T04:45:43.308Z,2.25
2019-01-23T04:48:12.724Z,2.42
2019-01-23T04:50:59.788Z,1.87
2019-01-23T04:53:35.893Z,1.40
2019-01-23T04:56:05.447Z,1.70
2019-01-23T04:58:34.844Z,1.65
2019-01-23T05:01:04.283Z,2.08
2019-01-23T05:03:33.656Z,1.62
2019-01-23T05:06:03.123Z,1.70
2019-01-23T05:08:32.474Z,1.90
2019-01-23T05:11:01.829Z,1.67
2019-01-23T05:13:31.201Z,1.67
2019-01-23T05:16:00.574Z,2.50
2019-01-23T05:18:29.943Z,2.00
2019-01-23T05:20:59.294Z,2.52
2019-01-23T05:23:28.725Z,2.00
2019-01-23T05:25:58.064Z,1.50
2019-01-23T05:28:30.524Z,1.57
2019-01-23T05:30:59.889Z,1.90
2019-01-23T05:33:29.284Z,2.05
2019-01-23T05:35:58.619Z,1.37
2019-01-23T05:38:27.967Z,1.98
2019-01-23T05:41:07.358Z,1.80
2019-01-23T05:43:36.705Z,1.47
2019-01-23T05:46:06.099Z,1.83
2019-01-23T05:48:35.502Z,1.80
2019-01-23T05:51:04.847Z,1.83
2019-01-23T05:53:34.235Z,2.12
2019-01-23T05:56:03.592Z,2.05
2019-01-23T05:58:32.949Z,1.25
2019-01-23T06:01:02.326Z,1.82
2019-01-23T06:03:32.243Z,2.40
2019-01-23T06:06:01.641Z,2.20
2019-01-23T06:08:30.990Z,2.10
2019-01-23T06:11:00.370Z,2.00
2019-01-23T06:13:29.793Z,1.85
2019-01-23T06:15:59.198Z,1.92
2019-01-23T06:18:28.576Z,1.62
2019-01-23T06:20:57.935Z,1.70
2019-01-23T06:23:27.298Z,1.60
2019-01-23T06:25:56.719Z,1.80
2019-01-23T06:28:26.050Z,1.77
2019-01-23T06:30:55.430Z,1.42
2019-01-23T06:33:24.793Z,1.77
2019-01-23T06:35:54.186Z,1.80
2019-01-23T06:38:23.557Z,2.05
2019-01-23T06:40:52.932Z,3.12
2019-01-23T06:43:22.370Z,2.22
2019-01-23T06:45:51.751Z,2.15
2019-01-23T06:48:21.135Z,2.17
2019-01-23T06:50:50.530Z,1.30
2019-01-23T06:53:19.871Z,1.27
2019-01-23T06:55:49.256Z,1.25
2019-01-23T06:58:18.691Z,1.40
2019-01-23T07:00:48.075Z,1.72
2019-01-23T07:03:17.670Z,1.52
2019-01-23T07:05:47.029Z,2.33
2019-01-23T07:08:16.392Z,1.57
2019-01-23T07:10:45.764Z,1.77
2019-01-23T07:13:15.123Z,1.70
2019-01-23T07:15:44.501Z,1.52
2019-01-23T07:18:13.896Z,1.60
2019-01-23T07:20:43.265Z,1.60
2019-01-23T07:23:12.649Z,1.70
2019-01-23T07:25:42.011Z,1.50
2019-01-23T07:28:11.382Z,2.00
2019-01-23T07:30:42.262Z,1.60
2019-01-23T07:33:11.648Z,1.85
2019-01-23T07:35:41.012Z,1.62
2019-01-23T07:38:10.354Z,1.70
2019-01-23T07:40:39.720Z,1.95
2019-01-23T07:43:10.116Z,2.00
2019-01-23T07:45:39.473Z,2.08
2019-01-23T07:48:08.822Z,2.00
2019-01-23T07:50:38.396Z,1.40
2019-01-23T07:53:07.849Z,1.80
2019-01-23T07:55:37.187Z,1.50
2019-01-23T07:58:06.592Z,1.60
2019-01-23T08:00:35.978Z,2.30
2019-01-23T08:03:06.006Z,1.47
2019-01-23T08:05:35.351Z,1.80
2019-01-23T08:08:05.040Z,1.40
2019-01-23T08:10:34.388Z,1.52
2019-01-23T08:13:03.766Z,1.67
2019-01-23T08:15:35.258Z,1.92
2019-01-23T08:18:05.113Z,1.97
2019-01-23T08:20:34.499Z,1.80
2019-01-23T08:23:04.129Z,1.67
2019-01-23T08:25:33.549Z,1.30
2019-01-23T08:28:03.004Z,1.17
2019-01-23T08:30:38.614Z,2.02
2019-01-23T08:33:03.596Z,1.50
2019-01-23T08:35:33.028Z,1.53
2019-01-23T08:38:02.376Z,1.57
2019-01-23T08:40:31.777Z,1.70
2019-01-23T08:43:01.165Z,1.35
2019-01-23T08:45:30.519Z,1.80
2019-01-23T08:47:59.876Z,1.77
2019-01-23T08:50:40.516Z,1.60
2019-01-23T08:53:09.873Z,1.60
2019-01-23T08:55:39.284Z,1.70
2019-01-23T08:58:08.709Z,2.10
2019-01-23T09:00:38.050Z,1.22
2019-01-23T09:03:07.697Z,1.45
2019-01-23T09:05:37.048Z,1.40
2019-01-23T09:08:07.284Z,1.33
2019-01-23T09:10:36.731Z,1.35
2019-01-23T09:13:06.142Z,1.27
2019-01-23T09:15:35.518Z,1.60
2019-01-23T09:18:07.073Z,1.30
2019-01-23T09:20:36.578Z,1.40
2019-01-23T09:23:05.998Z,1.80
2019-01-23T09:25:35.362Z,1.40
2019-01-23T09:28:04.923Z,1.60
2019-01-23T09:30:43.600Z,1.50
2019-01-23T09:33:41.917Z,1.70
2019-01-23T09:36:54.731Z,1.10
2019-01-23T09:40:03.526Z,1.82
2019-01-23T09:43:12.441Z,1.10
2019-01-23T09:46:29.035Z,0.97
2019-01-23T09:49:42.082Z,1.13
2019-01-23T09:53:00.044Z,1.43
2019-01-23T09:55:29.410Z,1.10
2019-01-23T09:58:05.410Z,1.17
2019-01-23T10:00:34.763Z,1.50
2019-01-23T10:03:04.233Z,1.53
2019-01-23T10:05:33.576Z,1.47
2019-01-23T10:08:02.965Z,1.12
2019-01-23T10:10:32.307Z,1.67
2019-01-23T10:13:01.668Z,1.50
2019-01-23T10:15:38.404Z,1.50
2019-01-23T10:18:07.769Z,1.40
2019-01-23T10:20:37.118Z,1.10
2019-01-23T10:23:06.469Z,2.10
2019-01-23T10:25:35.812Z,1.40
2019-01-23T10:28:05.188Z,2.40
2019-01-23T10:30:34.532Z,1.23
2019-01-23T10:33:03.893Z,1.50
2019-01-23T10:35:33.257Z,1.90
2019-01-23T10:38:02.618Z,2.43
2019-01-23T10:40:31.993Z,1.43
2019-01-23T10:43:01.412Z,1.60
2019-01-23T10:45:30.907Z,1.60
2019-01-23T10:48:00.254Z,1.87
2019-01-23T10:50:29.638Z,1.23
2019-01-23T10:52:58.994Z,1.50
2019-01-23T10:55:28.390Z,1.47
2019-01-23T10:57:57.729Z,1.50
2019-01-23T11:00:29.293Z,1.40
2019-01-23T11:02:58.899Z,1.37
2019-01-23T11:05:28.379Z,1.50
2019-01-23T11:07:57.717Z,1.50
2019-01-23T11:10:27.066Z,1.60
2019-01-23T11:12:56.434Z,1.90
2019-01-23T11:15:25.991Z,1.77
2019-01-23T11:17:55.364Z,2.00
2019-01-23T11:20:24.730Z,1.40
2019-01-23T11:22:54.108Z,1.13
2019-01-23T11:25:23.454Z,1.40
2019-01-23T11:27:52.833Z,1.03
2019-01-23T11:30:24.240Z,1.63
2019-01-23T11:32:53.718Z,1.80
2019-01-23T11:35:23.186Z,1.70
2019-01-23T11:37:52.770Z,1.20
2019-01-23T11:40:24.660Z,1.60
2019-01-23T11:42:54.001Z,1.23
2019-01-23T11:45:23.466Z,1.50
2019-01-23T11:47:52.828Z,1.30
2019-01-23T11:50:23.234Z,1.03
2019-01-23T11:52:53.327Z,1.10
2019-01-23T11:55:22.702Z,1.10
2019-01-23T11:57:52.336Z,0.93
2019-01-23T12:00:23.110Z,1.50
2019-01-23T12:02:52.678Z,1.30
2019-01-23T12:05:22.842Z,2.20
2019-01-23T12:07:52.440Z,1.47
2019-01-23T12:10:23.034Z,1.67
2019-01-23T12:12:52.899Z,1.40
2019-01-23T12:15:23.564Z,1.23
2019-01-23T12:17:53.058Z,1.47
2019-01-23T12:20:23.169Z,0.70
2019-01-23T12:22:52.819Z,1.93
2019-01-23T12:25:22.184Z,1.13
2019-01-23T12:27:51.553Z,2.00
2019-01-23T12:30:26.338Z,2.20
2019-01-23T12:32:56.070Z,1.63
2019-01-23T12:35:25.506Z,1.70
2019-01-23T12:37:54.887Z,1.90
2019-01-23T12:40:24.231Z,1.70
2019-01-23T12:42:53.599Z,1.50
2019-01-23T12:45:25.085Z,2.43
2019-01-23T12:47:54.465Z,1.80
2019-01-23T12:50:26.390Z,2.50
2019-01-23T12:52:55.771Z,2.70
2019-01-23T12:55:25.210Z,1.70
2019-01-23T12:57:54.577Z,2.20
2019-01-23T13:00:28.722Z,2.20
2019-01-23T13:02:58.326Z,2.10
2019-01-23T13:05:27.879Z,2.00
2019-01-23T13:07:57.242Z,2.27
2019-01-23T13:10:26.877Z,1.90
2019-01-23T13:12:57.080Z,1.70
2019-01-23T13:15:27.218Z,2.07
2019-01-23T13:17:56.984Z,3.63
2019-01-23T13:20:26.670Z,2.90
2019-01-23T13:22:56.035Z,2.20
2019-01-23T13:25:26.823Z,3.97
2019-01-23T13:27:57.285Z,4.07
2019-01-23T13:30:27.207Z,3.03
2019-01-23T13:32:56.815Z,3.60
2019-01-23T13:35:28.756Z,1.97
2019-01-23T13:37:58.128Z,3.00
2019-01-23T13:40:33.272Z,2.30
2019-01-23T13:43:02.782Z,2.30
2019-01-23T13:45:32.124Z,1.97
2019-01-23T13:48:01.687Z,1.60
2019-01-23T13:50:31.045Z,2.70
2019-01-23T13:53:00.478Z,3.13
2019-01-23T13:55:29.823Z,2.00
2019-01-23T13:57:59.180Z,2.00
2019-01-23T14:00:34.547Z,3.00
2019-01-23T14:03:04.137Z,1.93
2019-01-23T14:05:33.481Z,2.53
2019-01-23T14:08:02.928Z,2.97
2019-01-23T14:10:32.300Z,4.27
2019-01-23T14:13:01.637Z,4.10
2019-01-23T14:15:33.080Z,3.77
2019-01-23T14:18:02.414Z,3.67
2019-01-23T14:20:31.809Z,2.40
2019-01-23T14:23:01.169Z,4.40
2019-01-23T14:25:30.524Z,2.07
2019-01-23T14:27:59.899Z,2.43
2019-01-23T14:30:34.714Z,2.40
2019-01-23T14:33:04.095Z,1.90
2019-01-23T14:35:34.382Z,2.23
2019-01-23T14:38:03.948Z,2.10
2019-01-23T14:40:33.313Z,1.90
2019-01-23T14:43:03.010Z,2.10
2019-01-23T14:45:32.378Z,2.07
2019-01-23T14:48:01.774Z,2.00
2019-01-23T14:50:31.346Z,2.43
2019-01-23T14:53:01.001Z,1.93
2019-01-23T14:55:30.606Z,1.80
2019-01-23T14:58:00.501Z,2.37
2019-01-23T15:00:30.086Z,2.80
2019-01-23T15:02:59.434Z,3.70
2019-01-23T15:05:29.124Z,4.50
2019-01-23T15:07:58.609Z,5.47
2019-01-23T15:10:29.944Z,3.90
2019-01-23T15:12:59.927Z,3.23
2019-01-23T15:15:29.469Z,4.50
2019-01-23T15:17:59.151Z,4.50
2019-01-23T15:20:36.810Z,3.97
2019-01-23T15:23:06.296Z,5.40
2019-01-23T15:25:35.877Z,6.23
2019-01-23T15:28:05.853Z,4.50
2019-01-23T15:30:35.315Z,4.50
2019-01-23T15:33:04.893Z,3.50
2019-01-23T15:35:34.574Z,2.83
2019-01-23T15:38:03.943Z,3.77
2019-01-23T15:40:36.081Z,2.23
2019-01-23T15:43:05.544Z,3.23
2019-01-23T15:45:34.988Z,1.83
2019-01-23T15:48:04.448Z,2.70
2019-01-23T15:50:33.833Z,1.70
2019-01-23T15:53:03.192Z,2.03
2019-01-23T15:55:32.828Z,2.23
2019-01-23T15:58:02.174Z,1.80
2019-01-23T16:00:32.782Z,1.93
2019-01-23T16:03:02.147Z,2.20
2019-01-23T16:05:31.498Z,2.40
2019-01-23T16:08:00.887Z,2.00
2019-01-23T16:10:30.667Z,2.50
2019-01-23T16:13:00.020Z,2.57
2019-01-23T16:15:30.284Z,3.47
2019-01-23T16:17:59.689Z,3.20
2019-01-23T16:20:29.190Z,4.90
2019-01-23T16:22:58.569Z,3.40
2019-01-23T16:25:27.997Z,4.00
2019-01-23T16:27:57.374Z,3.90
2019-01-23T16:30:29.715Z,4.13
2019-01-23T16:32:59.182Z,3.30
2019-01-23T16:35:28.620Z,3.80
2019-01-23T16:37:58.010Z,2.73
2019-01-23T16:40:27.475Z,2.90
2019-01-23T16:42:56.867Z,3.30
2019-01-23T16:45:26.576Z,3.13
2019-01-23T16:47:55.945Z,3.73
2019-01-23T16:50:26.111Z,4.23
2019-01-23T16:52:55.648Z,4.40
2019-01-23T16:55:25.503Z,6.20
2019-01-23T16:57:55.182Z,8.47
2019-01-23T17:00:25.355Z,6.30
2019-01-23T17:02:54.943Z,5.33
2019-01-23T17:05:26.822Z,6.57
2019-01-23T17:07:57.397Z,6.50
2019-01-23T17:10:27.350Z,9.97
2019-01-23T17:12:56.743Z,5.97
2019-01-23T17:15:26.278Z,6.13
2019-01-23T17:17:55.882Z,7.43
2019-01-23T17:20:31.936Z,6.43
2019-01-23T17:23:01.309Z,6.47
2019-01-23T17:25:30.876Z,5.20
2019-01-23T17:28:00.407Z,4.60
2019-01-23T17:30:29.907Z,4.07
2019-01-23T17:32:59.252Z,3.60
2019-01-23T17:35:28.630Z,4.60
2019-01-23T17:37:58.025Z,5.53
2019-01-23T17:40:27.407Z,4.77
2019-01-23T17:42:56.896Z,4.67
2019-01-23T17:45:28.423Z,4.30
2019-01-23T17:47:57.785Z,4.30
2019-01-23T17:50:27.181Z,4.00
2019-01-23T17:52:56.803Z,4.27
2019-01-23T17:55:28.582Z,3.17
2019-01-23T17:57:58.372Z,4.90
2019-01-23T18:00:29.503Z,4.00
2019-01-23T18:02:58.878Z,3.73
2019-01-23T18:05:28.254Z,3.63
2019-01-23T18:07:57.608Z,4.10
2019-01-23T18:10:28.340Z,3.03
2019-01-23T18:12:57.923Z,4.03
2019-01-23T18:15:27.570Z,3.07
2019-01-23T18:17:58.001Z,5.40
2019-01-23T18:20:28.826Z,4.50
2019-01-23T18:22:58.507Z,4.23
2019-01-23T18:25:27.861Z,6.20
2019-01-23T18:27:57.267Z,5.73
2019-01-23T18:30:30.048Z,7.90
2019-01-23T18:33:00.536Z,5.53
2019-01-23T18:35:51.562Z,6.90
2019-01-23T18:38:53.806Z,6.93
2019-01-23T18:42:28.377Z,4.93
2019-01-23T18:45:25.331Z,6.87
2019-01-23T18:48:47.309Z,6.17
2019-01-23T18:51:27.053Z,6.43
2019-01-23T18:53:56.461Z,6.87
2019-01-23T18:56:25.845Z,7.73
2019-01-23T18:58:55.587Z,5.80
2019-01-23T19:01:24.963Z,4.40
2019-01-23T19:03:54.358Z,4.00
2019-01-23T19:06:23.686Z,3.73
2019-01-23T19:08:53.085Z,4.50
2019-01-23T19:11:22.455Z,5.10
2019-01-23T19:13:51.882Z,4.63
2019-01-23T19:16:21.273Z,6.83
2019-01-23T19:18:50.645Z,7.20
2019-01-23T19:21:20.038Z,6.57
2019-01-23T19:23:49.451Z,8.03
2019-01-23T19:26:18.898Z,8.93
2019-01-23T19:28:48.284Z,10.43
2019-01-23T19:31:17.733Z,11.97
2019-01-23T19:33:48.229Z,11.57
2019-01-23T19:36:18.014Z,14.00
2019-01-23T19:38:47.434Z,14.73
2019-01-23T19:41:20.385Z,11.87
2019-01-23T19:43:47.898Z,7.23
2019-01-23T19:46:17.389Z,6.60
2019-01-23T19:48:46.959Z,5.37
2019-01-23T19:51:16.470Z,7.73
2019-01-23T19:53:45.927Z,11.03
2019-01-23T19:56:15.387Z,10.07
2019-01-23T19:58:44.750Z,10.20
2019-01-23T20:01:14.168Z,11.43
2019-01-23T20:03:43.564Z,11.73
2019-01-23T20:06:12.935Z,11.17
2019-01-23T20:08:42.632Z,14.47
2019-01-23T20:11:12.447Z,12.80
2019-01-23T20:13:41.920Z,11.80
2019-01-23T20:16:11.300Z,11.23
2019-01-23T20:18:40.717Z,10.60
2019-01-23T20:21:10.120Z,9.43
2019-01-23T20:23:39.489Z,8.83
2019-01-23T20:26:08.907Z,8.60
2019-01-23T20:28:38.560Z,10.47
2019-01-23T20:31:09.962Z,11.80
2019-01-23T20:33:39.355Z,13.33
2019-01-23T20:36:08.744Z,13.10
2019-01-23T20:38:38.220Z,14.53
2019-01-23T20:41:08.651Z,15.97
2019-01-23T20:43:38.116Z,19.77
2019-01-23T20:46:07.723Z,12.43
2019-01-23T20:48:37.134Z,12.50
2019-01-23T20:51:06.560Z,9.93
2019-01-23T20:53:35.996Z,9.53
2019-01-23T20:56:05.907Z,10.97
2019-01-23T20:58:35.320Z,8.73
2019-01-23T21:01:05.006Z,6.70
2019-01-23T21:03:35.140Z,8.63
2019-01-23T21:06:04.856Z,8.23
2019-01-23T21:08:34.279Z,12.10
2019-01-23T21:11:03.707Z,12.27
2019-01-23T21:13:33.072Z,13.80
2019-01-23T21:16:02.822Z,9.53
2019-01-23T21:18:32.250Z,6.83
2019-01-23T21:21:01.756Z,4.67
2019-01-23T21:23:31.119Z,4.90
2019-01-23T21:26:00.583Z,4.30
2019-01-23T21:28:29.997Z,5.42
2019-01-23T21:30:59.483Z,5.10
2019-01-23T21:33:28.844Z,5.00
2019-01-23T21:35:58.236Z,7.53
2019-01-23T21:38:27.699Z,7.93
2019-01-23T21:40:57.524Z,8.10
2019-01-23T21:43:26.939Z,8.18
2019-01-23T21:45:56.366Z,7.15
2019-01-23T21:48:25.915Z,7.28
2019-01-23T21:50:55.406Z,6.73
2019-01-23T21:53:24.836Z,7.40
2019-01-23T21:55:54.216Z,6.20
2019-01-23T21:58:23.555Z,7.17
2019-01-23T22:00:56.297Z,5.90
2019-01-23T22:03:25.723Z,5.17
2019-01-23T22:05:55.057Z,5.47
2019-01-23T22:08:24.432Z,4.93
2019-01-23T22:10:53.814Z,5.67
2019-01-23T22:13:23.164Z,5.47
2019-01-23T22:15:52.537Z,5.10
2019-01-23T22:18:21.904Z,5.80
2019-01-23T22:20:51.244Z,6.07
2019-01-23T22:23:20.622Z,6.70
2019-01-23T22:25:50.011Z,7.67
2019-01-23T22:28:19.402Z,6.80
2019-01-23T22:30:48.751Z,6.73
2019-01-23T22:33:18.124Z,6.80
2019-01-23T22:35:47.502Z,7.50
2019-01-23T22:38:16.864Z,7.33
2019-01-23T22:40:46.226Z,6.85
2019-01-23T22:43:15.585Z,7.40
2019-01-23T22:45:44.950Z,6.92
2019-01-23T22:48:14.324Z,7.25
2019-01-23T22:50:43.670Z,7.43
2019-01-23T22:53:13.840Z,7.70
2019-01-23T22:55:43.153Z,7.17
2019-01-23T22:58:15.607Z,7.90
2019-01-23T23:01:26.118Z,6.63
2019-01-23T23:03:55.653Z,7.23
2019-01-23T23:06:30.465Z,7.30
2019-01-23T23:08:59.861Z,7.42
2019-01-23T23:11:29.219Z,7.13
2019-01-23T23:13:58.574Z,7.57
2019-01-23T23:16:27.930Z,6.53
2019-01-23T23:18:57.329Z,7.27
2019-01-23T23:21:26.800Z,6.93
2019-01-23T23:23:56.186Z,6.87
2019-01-23T23:26:25.615Z,6.70
2019-01-23T23:28:55.006Z,6.63
2019-01-23T23:31:24.380Z,7.00
2019-01-23T23:33:53.764Z,9.43
2019-01-23T23:36:23.085Z,8.60
2019-01-23T23:38:52.460Z,7.90
2019-01-23T23:41:21.830Z,6.70
2019-01-23T23:43:51.182Z,6.63
2019-01-23T23:46:20.549Z,6.20
2019-01-23T23:48:49.900Z,6.37
2019-01-23T23:51:19.266Z,7.00
2019-01-23T23:53:48.596Z,7.50
2019-01-23T23:56:17.978Z,6.37
2019-01-23T23:58:47.339Z,6.47
